Time;durP1;ratioP1;P1;durP2;ratioP2;P2;SDS_P1;SDS_P2;PMS_P1;PMS_P2;Temp;Humidity;BMP_temperature;BMP_pressure;BME280_temperature;BME280_humidity;BME280_pressure;Samples;Min_cycle;Max_cycle;Signal;HPM_P1;HPM_P2
2023/05/24 00:04:23;;;;;;;14.23;9.48;;;;;;;14.72;75.37;100001.69;30866115;28;97641;-66
2023/05/24 00:19:24;;;;;;;9.35;6.75;;;;;;;14.22;76.24;100013.44;30863673;28;96713;-66
2023/05/24 00:34:26;;;;;;;4.10;3.10;;;;;;;13.69;77.00;100019.28;30861195;28;97491;-66
2023/05/24 00:49:26;;;;;;;2.65;1.83;;;;;;;13.20;77.61;100031.66;30847066;28;115952;-66
2023/05/24 01:04:27;;;;;;;1.95;1.38;;;;;;;12.95;78.11;100046.41;30859431;28;97878;-66
2023/05/24 01:19:42;;;;;;;2.50;1.23;;;;;;;12.66;78.52;100062.31;30859732;28;97463;-66
2023/05/24 01:34:42;;;;;;;1.90;1.40;;;;;;;12.29;78.90;100073.97;30858037;28;96647;-66
2023/05/24 01:49:49;;;;;;;2.58;1.40;;;;;;;11.93;78.90;100098.66;30855294;28;115427;-67
2023/05/24 02:04:50;;;;;;;4.23;1.50;;;;;;;11.66;78.77;100111.59;30854904;28;97255;-67
2023/05/24 02:19:50;;;;;;;4.57;2.00;;;;;;;11.37;78.68;100131.78;30853510;28;96585;-66
2023/05/24 02:34:50;;;;;;;7.28;1.80;;;;;;;11.12;78.63;100133.78;30852629;28;106167;-65
2023/05/24 02:49:52;;;;;;;3.20;1.70;;;;;;;10.88;78.31;100162.22;30851490;28;96593;-67
2023/05/24 03:04:52;;;;;;;3.33;1.80;;;;;;;10.83;78.50;100178.72;30850943;28;96774;-65
2023/05/24 03:19:52;;;;;;;3.58;1.70;;;;;;;10.90;78.57;100191.34;30848623;28;107730;-67
2023/05/24 03:34:53;;;;;;;4.45;1.67;;;;;;;10.83;78.91;100200.03;30867235;28;96595;-67
2023/05/24 03:49:53;;;;;;;8.43;1.60;;;;;;;10.80;78.66;100192.38;30866998;28;96814;-67
2023/05/24 04:04:54;;;;;;;3.35;1.50;;;;;;;10.83;78.70;100194.69;30864721;28;100404;-65
2023/05/24 04:19:55;;;;;;;2.53;1.35;;;;;;;10.87;78.17;100221.84;30858629;28;97210;-65
2023/05/24 04:34:55;;;;;;;4.63;1.90;;;;;;;10.94;78.55;100230.00;30856195;28;96791;-65
2023/05/24 04:49:55;;;;;;;3.67;1.85;;;;;;;11.17;77.92;100241.56;30858198;28;100551;-66
2023/05/24 05:04:56;;;;;;;5.75;2.30;;;;;;;11.35;77.30;100256.50;30860018;28;104656;-67
2023/05/24 05:19:56;;;;;;;8.70;3.90;;;;;;;11.41;77.66;100277.13;30857348;28;108695;-66
2023/05/24 05:34:56;;;;;;;5.45;2.95;;;;;;;11.50;76.55;100304.59;30857033;28;110368;-67
2023/05/24 05:49:56;;;;;;;4.88;2.92;;;;;;;11.35;76.19;100310.66;30856557;28;113066;-66
2023/05/24 06:04:57;;;;;;;8.68;3.30;;;;;;;11.65;75.93;100326.06;30854548;28;113427;-65
2023/05/24 06:19:58;;;;;;;6.82;3.47;;;;;;;12.66;73.83;100334.94;30853783;28;96738;-65
2023/05/24 06:34:58;;;;;;;12.27;3.30;;;;;;;13.26;72.35;100344.88;30852699;28;96732;-65
2023/05/24 06:49:59;;;;;;;11.85;2.90;;;;;;;13.56;70.32;100379.69;30850940;28;106227;-67
2023/05/24 07:05:00;;;;;;;9.67;2.77;;;;;;;13.83;67.83;100388.91;30864234;28;97341;-65
2023/05/24 07:20:01;;;;;;;6.55;2.42;;;;;;;14.39;66.02;100409.75;30872491;28;96705;-66
2023/05/24 07:35:01;;;;;;;5.43;2.08;;;;;;;14.62;64.13;100417.59;30868746;28;97291;-65
2023/05/24 07:50:02;;;;;;;8.52;3.42;;;;;;;15.02;62.87;100427.91;30866763;28;110316;-65
2023/05/24 08:05:04;;;;;;;10.50;3.87;;;;;;;14.44;62.56;100455.56;30865101;28;98533;-65
2023/05/24 08:20:08;;;;;;;8.53;3.30;;;;;;;15.14;62.10;100455.03;30864192;28;97616;-65
2023/05/24 08:35:09;;;;;;;8.23;3.47;;;;;;;16.10;59.50;100459.78;30862365;28;97649;-66
2023/05/24 08:50:09;;;;;;;8.65;2.90;;;;;;;17.34;57.33;100465.84;30861347;28;96842;-65
2023/05/24 09:05:16;;;;;;;7.53;2.80;;;;;;;17.78;53.68;100474.28;30859984;28;96818;-66
2023/05/24 09:20:17;;;;;;;10.10;3.00;;;;;;;18.09;51.77;100483.56;30858704;28;97087;-66
2023/05/24 09:35:17;;;;;;;6.67;3.53;;;;;;;19.34;49.04;100489.50;30857094;28;97133;-68
2023/05/24 09:50:18;;;;;;;8.15;3.97;;;;;;;20.00;46.76;100481.78;30854957;28;97710;-66
2023/05/24 10:05:18;;;;;;;10.60;4.00;;;;;;;19.20;46.71;100503.09;30854820;28;96820;-66
2023/05/24 10:20:19;;;;;;;9.63;3.80;;;;;;;17.97;47.01;100504.13;30849189;28;110281;-65
2023/05/24 10:35:22;;;;;;;7.17;3.93;;;;;;;17.85;47.75;100509.31;30788999;28;97010;-66
2023/05/24 10:50:22;;;;;;;9.27;3.67;;;;;;;18.47;47.08;100522.44;30802342;28;97250;-65
2023/05/24 11:05:22;;;;;;;8.20;3.42;;;;;;;18.34;47.52;100520.59;30844055;28;96842;-66
2023/05/24 11:20:23;;;;;;;9.55;3.92;;;;;;;18.36;47.13;100529.31;30851500;28;96760;-67
2023/05/24 11:35:27;;;;;;;7.18;3.53;;;;;;;18.07;46.90;100528.75;30837154;28;98493;-67
2023/05/24 11:50:27;;;;;;;7.03;3.33;;;;;;;17.98;47.39;100540.84;30853042;28;97378;-65
2023/05/24 12:05:30;;;;;;;10.63;3.85;;;;;;;18.16;47.37;100540.16;30857198;28;104543;-64
2023/05/24 12:20:31;;;;;;;7.43;4.23;;;;;;;18.79;46.39;100539.47;30854865;28;97525;-65
2023/05/24 12:35:31;;;;;;;6.57;3.33;;;;;;;18.98;45.93;100531.53;30851094;28;96869;-67
2023/05/24 12:50:33;;;;;;;8.73;3.08;;;;;;;19.47;45.30;100527.19;30849442;28;97459;-69
2023/05/24 13:05:33;;;;;;;10.07;3.23;;;;;;;19.45;45.23;100532.81;30847832;28;96983;-67
2023/05/24 13:20:34;;;;;;;10.20;3.45;;;;;;;19.18;45.20;100540.31;30847004;28;104500;-65
2023/05/24 13:35:34;;;;;;;12.05;4.38;;;;;;;19.20;45.17;100538.19;30844484;28;96817;-65
2023/05/24 13:50:35;;;;;;;9.23;2.60;;;;;;;19.65;44.08;100539.94;30849638;28;97805;-65
2023/05/24 14:05:36;;;;;;;8.43;2.53;;;;;;;19.71;44.23;100535.50;30851893;28;97142;-65
2023/05/24 14:20:38;;;;;;;9.93;3.35;;;;;;;20.98;42.86;100535.94;30844090;28;97069;-63
2023/05/24 14:35:39;;;;;;;6.13;2.10;;;;;;;20.91;42.10;100534.16;30845923;28;97118;-64
2023/05/24 14:50:39;;;;;;;4.30;1.97;;;;;;;20.42;42.35;100530.59;30851937;28;96852;-64
2023/05/24 15:05:41;;;;;;;9.07;2.80;;;;;;;20.15;42.21;100533.66;30849715;28;96866;-64
2023/05/24 15:20:41;;;;;;;8.00;2.30;;;;;;;20.43;42.36;100529.56;30735177;28;98075;-76
2023/05/24 15:35:42;;;;;;;8.60;2.87;;;;;;;20.27;42.44;100529.13;30742050;28;97421;-63
2023/05/24 15:50:43;;;;;;;6.87;2.83;;;;;;;19.90;42.43;100515.59;30742492;28;96808;-70
2023/05/24 16:05:43;;;;;;;5.47;2.20;;;;;;;19.39;43.56;100517.50;30729565;28;98293;-66
2023/05/24 16:20:44;;;;;;;6.28;2.67;;;;;;;18.78;44.22;100530.56;30740836;28;96805;-66
2023/05/24 16:35:46;;;;;;;6.90;2.37;;;;;;;18.39;45.52;100529.69;30731921;28;97840;-65
2023/05/24 16:50:47;;;;;;;8.17;2.47;;;;;;;18.12;46.17;100550.53;30728779;28;97287;-64
2023/05/24 17:05:49;;;;;;;6.82;3.50;;;;;;;17.65;47.02;100565.94;30727217;28;97530;-65
2023/05/24 17:20:50;;;;;;;8.03;2.87;;;;;;;17.18;47.75;100580.19;30726696;28;97353;-65
2023/05/24 17:35:50;;;;;;;6.13;3.30;;;;;;;16.74;48.97;100594.91;30724840;28;98375;-66
2023/05/24 17:50:51;;;;;;;5.50;2.47;;;;;;;16.03;50.53;100602.22;30726708;28;97273;-65
2023/05/24 18:05:51;;;;;;;6.93;2.67;;;;;;;15.34;52.03;100621.63;30728143;28;115854;-63
2023/05/24 18:20:51;;;;;;;7.25;2.75;;;;;;;14.77;53.67;100647.38;30721036;28;97902;-65
2023/05/24 18:35:52;;;;;;;6.20;2.97;;;;;;;14.16;55.03;100657.22;30722383;28;97218;-65
2023/05/24 18:50:53;;;;;;;11.30;2.88;;;;;;;13.61;56.77;100679.78;30720591;28;97448;-65
2023/05/24 19:05:53;;;;;;;5.70;2.33;;;;;;;13.16;57.92;100687.53;30736353;28;97571;-69
2023/05/24 19:20:53;;;;;;;8.77;3.13;;;;;;;12.75;59.23;100693.88;30742723;28;105069;-66
2023/05/24 19:35:54;;;;;;;10.93;3.65;;;;;;;12.38;60.88;100689.97;30747307;28;97541;-66
2023/05/24 19:50:54;;;;;;;11.88;4.40;;;;;;;12.09;61.81;100696.69;30748079;28;96683;-68
2023/05/24 20:05:54;;;;;;;12.18;4.47;;;;;;;11.83;63.48;100697.66;30745188;28;99405;-69
2023/05/24 20:20:56;;;;;;;8.13;3.85;;;;;;;11.65;64.30;100711.16;30745997;28;96828;-68
2023/05/24 20:35:57;;;;;;;10.93;4.43;;;;;;;11.46;65.42;100724.78;30744244;28;97425;-66
2023/05/24 20:50:57;;;;;;;18.45;7.75;;;;;;;11.27;65.95;100720.56;30735304;28;103747;-67
2023/05/24 21:05:57;;;;;;;15.13;6.00;;;;;;;11.13;66.55;100733.53;30737155;28;110158;-65
2023/05/24 21:20:58;;;;;;;13.25;6.25;;;;;;;11.01;68.33;100750.78;30737054;28;97752;-67
2023/05/24 21:35:59;;;;;;;16.97;5.90;;;;;;;10.82;68.50;100766.00;30736773;28;96830;-66
2023/05/24 21:50:59;;;;;;;15.85;6.22;;;;;;;10.63;69.61;100774.22;30736046;28;97079;-66
2023/05/24 22:06:00;;;;;;;11.52;6.13;;;;;;;10.44;69.87;100780.59;30735055;28;97470;-64
2023/05/24 22:21:05;;;;;;;13.43;7.05;;;;;;;10.25;70.63;100781.56;30733872;28;97284;-66
2023/05/24 22:36:05;;;;;;;14.27;6.97;;;;;;;10.16;71.33;100792.16;30732165;28;97616;-65
2023/05/24 22:51:06;;;;;;;11.05;5.63;;;;;;;10.02;71.84;100786.50;30731693;28;97592;-65
2023/05/24 23:06:06;;;;;;;14.33;5.90;;;;;;;9.79;72.35;100787.81;30730357;28;96832;-65
2023/05/24 23:21:10;;;;;;;14.65;7.45;;;;;;;9.72;72.62;100796.53;30728780;28;96692;-63
2023/05/24 23:36:11;;;;;;;15.17;6.83;;;;;;;9.58;73.01;100795.22;30717630;28;97029;-64
2023/05/24 23:51:11;;;;;;;15.95;7.70;;;;;;;9.41;73.09;100797.69;30732621;28;97579;-65
